sensor_id;sensor_type;location;lat;lon;timestamp;pressure;altitude;pressure_sealevel;temperature;humidity
38303;BME280;24103;42.454;27.400;2023-06-01T00:01:08;100756.16;;;18.21;100.00
38303;BME280;24103;42.454;27.400;2023-06-01T00:03:38;100753.28;;;18.13;100.00
38303;BME280;24103;42.454;27.400;2023-06-01T00:06:03;100757.25;;;18.19;100.00
38303;BME280;24103;42.454;27.400;2023-06-01T00:08:29;100755.66;;;18.16;100.00
38303;BME280;24103;42.454;27.400;2023-06-01T00:10:54;100753.81;;;18.07;100.00
38303;BME280;24103;42.454;27.400;2023-06-01T00:13:20;100762.16;;;18.14;100.00
38303;BME280;24103;42.454;27.400;2023-06-01T00:15:45;100761.56;;;18.10;100.00
38303;BME280;24103;42.454;27.400;2023-06-01T00:18:10;100759.94;;;17.98;100.00
38303;BME280;24103;42.454;27.400;2023-06-01T00:20:38;100756.47;;;17.86;100.00
38303;BME280;24103;42.454;27.400;2023-06-01T00:23:04;100759.88;;;17.88;100.00
38303;BME280;24103;42.454;27.400;2023-06-01T00:25:30;100767.22;;;17.75;100.00
38303;BME280;24103;42.454;27.400;2023-06-01T00:27:56;100759.50;;;17.60;100.00
38303;BME280;24103;42.454;27.400;2023-06-01T00:30:21;100750.69;;;17.48;100.00
38303;BME280;24103;42.454;27.400;2023-06-01T00:32:47;100755.38;;;17.35;100.00
38303;BME280;24103;42.454;27.400;2023-06-01T00:35:12;100751.41;;;17.29;100.00
38303;BME280;24103;42.454;27.400;2023-06-01T00:37:38;100754.91;;;17.30;100.00
38303;BME280;24103;42.454;27.400;2023-06-01T00:40:03;100746.09;;;17.18;100.00
38303;BME280;24103;42.454;27.400;2023-06-01T00:42:29;100748.06;;;17.16;100.00
38303;BME280;24103;42.454;27.400;2023-06-01T00:44:55;100745.38;;;17.16;100.00
38303;BME280;24103;42.454;27.400;2023-06-01T00:47:20;100742.25;;;17.11;100.00
38303;BME280;24103;42.454;27.400;2023-06-01T00:49:46;100735.34;;;17.08;100.00
38303;BME280;24103;42.454;27.400;2023-06-01T00:52:12;100741.69;;;16.96;100.00
38303;BME280;24103;42.454;27.400;2023-06-01T00:54:39;100731.03;;;16.96;100.00
38303;BME280;24103;42.454;27.400;2023-06-01T00:57:05;100731.97;;;16.95;100.00
38303;BME280;24103;42.454;27.400;2023-06-01T00:59:32;100728.59;;;16.93;100.00
38303;BME280;24103;42.454;27.400;2023-06-01T01:01:58;100719.47;;;16.95;100.00
38303;BME280;24103;42.454;27.400;2023-06-01T01:04:23;100724.19;;;17.03;100.00
38303;BME280;24103;42.454;27.400;2023-06-01T01:12:04;100740.75;;;17.18;100.00
38303;BME280;24103;42.454;27.400;2023-06-01T01:15:12;100744.53;;;17.16;100.00
38303;BME280;24103;42.454;27.400;2023-06-01T01:17:40;100741.50;;;17.09;100.00
38303;BME280;24103;42.454;27.400;2023-06-01T01:23:02;100745.56;;;16.81;100.00
38303;BME280;24103;42.454;27.400;2023-06-01T01:31:16;100743.06;;;16.11;100.00
38303;BME280;24103;42.454;27.400;2023-06-01T01:33:44;100747.53;;;16.11;100.00
38303;BME280;24103;42.454;27.400;2023-06-01T01:36:12;100746.94;;;16.07;100.00
38303;BME280;24103;42.454;27.400;2023-06-01T01:38:38;100739.28;;;15.91;100.00
38303;BME280;24103;42.454;27.400;2023-06-01T01:41:03;100738.91;;;15.84;100.00
38303;BME280;24103;42.454;27.400;2023-06-01T01:43:30;100744.91;;;15.75;100.00
38303;BME280;24103;42.454;27.400;2023-06-01T01:48:58;100738.34;;;15.68;100.00
38303;BME280;24103;42.454;27.400;2023-06-01T01:51:32;100736.66;;;15.67;100.00
38303;BME280;24103;42.454;27.400;2023-06-01T01:53:58;100741.75;;;15.70;100.00
38303;BME280;24103;42.454;27.400;2023-06-01T01:56:25;100741.19;;;15.78;100.00
38303;BME280;24103;42.454;27.400;2023-06-01T01:58:51;100741.81;;;15.81;100.00
38303;BME280;24103;42.454;27.400;2023-06-01T02:01:18;100743.13;;;15.76;100.00
38303;BME280;24103;42.454;27.400;2023-06-01T02:03:44;100743.44;;;15.71;100.00
38303;BME280;24103;42.454;27.400;2023-06-01T02:06:10;100744.06;;;15.75;100.00
38303;BME280;24103;42.454;27.400;2023-06-01T02:08:35;100742.06;;;15.90;100.00
38303;BME280;24103;42.454;27.400;2023-06-01T02:11:01;100737.94;;;15.97;100.00
38303;BME280;24103;42.454;27.400;2023-06-01T02:13:26;100738.69;;;15.99;100.00
38303;BME280;24103;42.454;27.400;2023-06-01T02:15:52;100745.69;;;15.89;100.00
38303;BME280;24103;42.454;27.400;2023-06-01T02:18:17;100746.06;;;15.84;100.00
38303;BME280;24103;42.454;27.400;2023-06-01T02:20:44;100744.69;;;15.78;100.00
38303;BME280;24103;42.454;27.400;2023-06-01T02:23:10;100744.47;;;15.81;100.00
38303;BME280;24103;42.454;27.400;2023-06-01T02:25:35;100747.13;;;15.81;100.00
38303;BME280;24103;42.454;27.400;2023-06-01T02:28:01;100747.38;;;15.90;100.00
38303;BME280;24103;42.454;27.400;2023-06-01T02:30:27;100744.25;;;15.96;100.00
38303;BME280;24103;42.454;27.400;2023-06-01T02:32:52;100742.56;;;15.95;100.00
38303;BME280;24103;42.454;27.400;2023-06-01T02:35:18;100748.59;;;15.86;100.00
38303;BME280;24103;42.454;27.400;2023-06-01T02:37:43;100745.88;;;15.74;100.00
38303;BME280;24103;42.454;27.400;2023-06-01T02:40:09;100746.53;;;15.78;100.00
38303;BME280;24103;42.454;27.400;2023-06-01T02:42:38;100749.59;;;15.96;100.00
38303;BME280;24103;42.454;27.400;2023-06-01T02:45:05;100751.03;;;16.00;100.00
38303;BME280;24103;42.454;27.400;2023-06-01T02:47:31;100759.78;;;16.02;100.00
38303;BME280;24103;42.454;27.400;2023-06-01T02:49:57;100756.13;;;16.03;100.00
38303;BME280;24103;42.454;27.400;2023-06-01T02:52:22;100761.31;;;15.93;100.00
38303;BME280;24103;42.454;27.400;2023-06-01T02:54:48;100756.59;;;15.86;100.00
38303;BME280;24103;42.454;27.400;2023-06-01T02:57:13;100762.44;;;15.91;100.00
38303;BME280;24103;42.454;27.400;2023-06-01T02:59:38;100763.97;;;15.93;100.00
38303;BME280;24103;42.454;27.400;2023-06-01T03:02:04;100761.31;;;15.93;100.00
38303;BME280;24103;42.454;27.400;2023-06-01T03:04:30;100760.97;;;15.98;100.00
38303;BME280;24103;42.454;27.400;2023-06-01T03:06:58;100757.84;;;16.15;100.00
38303;BME280;24103;42.454;27.400;2023-06-01T03:09:24;100764.88;;;16.16;100.00
38303;BME280;24103;42.454;27.400;2023-06-01T03:11:50;100765.47;;;16.31;100.00
38303;BME280;24103;42.454;27.400;2023-06-01T03:14:15;100768.63;;;16.48;100.00
38303;BME280;24103;42.454;27.400;2023-06-01T03:16:41;100764.25;;;16.58;100.00
38303;BME280;24103;42.454;27.400;2023-06-01T03:19:06;100770.34;;;16.60;100.00
38303;BME280;24103;42.454;27.400;2023-06-01T03:21:32;100774.81;;;16.59;100.00
38303;BME280;24103;42.454;27.400;2023-06-01T03:23:57;100764.75;;;16.63;100.00
38303;BME280;24103;42.454;27.400;2023-06-01T03:26:23;100766.31;;;16.66;100.00
38303;BME280;24103;42.454;27.400;2023-06-01T03:28:49;100776.28;;;16.52;100.00
38303;BME280;24103;42.454;27.400;2023-06-01T03:31:15;100786.22;;;16.62;100.00
38303;BME280;24103;42.454;27.400;2023-06-01T03:33:41;100779.53;;;16.67;100.00
38303;BME280;24103;42.454;27.400;2023-06-01T03:36:07;100777.69;;;16.79;100.00
38303;BME280;24103;42.454;27.400;2023-06-01T03:38:33;100780.03;;;16.95;100.00
38303;BME280;24103;42.454;27.400;2023-06-01T03:40:59;100781.81;;;17.06;100.00
38303;BME280;24103;42.454;27.400;2023-06-01T03:43:26;100775.50;;;17.07;100.00
38303;BME280;24103;42.454;27.400;2023-06-01T03:45:51;100775.34;;;17.20;100.00
38303;BME280;24103;42.454;27.400;2023-06-01T03:48:17;100773.25;;;17.35;100.00
38303;BME280;24103;42.454;27.400;2023-06-01T03:50:42;100774.88;;;17.47;100.00
38303;BME280;24103;42.454;27.400;2023-06-01T03:53:08;100774.88;;;17.47;100.00
38303;BME280;24103;42.454;27.400;2023-06-01T03:55:33;100777.53;;;17.47;100.00
38303;BME280;24103;42.454;27.400;2023-06-01T03:58:00;100779.78;;;17.63;100.00
38303;BME280;24103;42.454;27.400;2023-06-01T04:00:28;100775.44;;;17.83;100.00
38303;BME280;24103;42.454;27.400;2023-06-01T04:02:55;100772.44;;;18.18;100.00
38303;BME280;24103;42.454;27.400;2023-06-01T04:05:22;100776.69;;;18.52;100.00
38303;BME280;24103;42.454;27.400;2023-06-01T04:07:49;100775.22;;;18.78;100.00
38303;BME280;24103;42.454;27.400;2023-06-01T04:10:15;100778.34;;;18.84;100.00
38303;BME280;24103;42.454;27.400;2023-06-01T04:12:43;100775.16;;;19.00;100.00
38303;BME280;24103;42.454;27.400;2023-06-01T04:15:10;100782.22;;;19.10;100.00
38303;BME280;24103;42.454;27.400;2023-06-01T04:17:37;100796.22;;;19.24;100.00
38303;BME280;24103;42.454;27.400;2023-06-01T04:20:05;100797.31;;;19.21;100.00
38303;BME280;24103;42.454;27.400;2023-06-01T04:22:38;100791.25;;;19.48;100.00
38303;BME280;24103;42.454;27.400;2023-06-01T04:25:06;100787.56;;;20.18;100.00
38303;BME280;24103;42.454;27.400;2023-06-01T04:27:40;100765.22;;;21.82;100.00
38303;BME280;24103;42.454;27.400;2023-06-01T04:30:09;100747.56;;;23.83;100.00
38303;BME280;24103;42.454;27.400;2023-06-01T04:32:35;100723.91;;;25.59;82.34
38303;BME280;24103;42.454;27.400;2023-06-01T04:35:03;100712.88;;;25.98;69.80
38303;BME280;24103;42.454;27.400;2023-06-01T04:37:32;100711.59;;;26.24;66.81
38303;BME280;24103;42.454;27.400;2023-06-01T04:39:59;100698.06;;;26.97;60.80
38303;BME280;24103;42.454;27.400;2023-06-01T04:42:25;100685.09;;;28.27;55.41
38303;BME280;24103;42.454;27.400;2023-06-01T04:44:51;100689.34;;;29.91;50.91
38303;BME280;24103;42.454;27.400;2023-06-01T04:47:16;100666.59;;;31.58;45.98
38303;BME280;24103;42.454;27.400;2023-06-01T04:49:43;100661.66;;;32.90;41.74
38303;BME280;24103;42.454;27.400;2023-06-01T04:52:09;100651.59;;;33.26;39.70
38303;BME280;24103;42.454;27.400;2023-06-01T04:54:37;100643.13;;;33.87;37.30
38303;BME280;24103;42.454;27.400;2023-06-01T04:57:03;100640.25;;;34.46;35.39
38303;BME280;24103;42.454;27.400;2023-06-01T04:59:32;100639.59;;;35.01;34.47
38303;BME280;24103;42.454;27.400;2023-06-01T05:01:57;100643.28;;;35.80;33.58
38303;BME280;24103;42.454;27.400;2023-06-01T05:04:23;100633.59;;;37.31;31.08
38303;BME280;24103;42.454;27.400;2023-06-01T05:06:49;100606.00;;;38.78;28.07
38303;BME280;24103;42.454;27.400;2023-06-01T05:09:14;100615.28;;;39.69;27.48
38303;BME280;24103;42.454;27.400;2023-06-01T05:11:40;100607.56;;;40.66;26.52
38303;BME280;24103;42.454;27.400;2023-06-01T05:14:06;100605.38;;;41.51;25.11
38303;BME280;24103;42.454;27.400;2023-06-01T05:16:31;100603.97;;;42.40;23.69
38303;BME280;24103;42.454;27.400;2023-06-01T05:18:57;100598.03;;;43.12;23.32
38303;BME280;24103;42.454;27.400;2023-06-01T05:21:22;100596.13;;;43.82;22.39
38303;BME280;24103;42.454;27.400;2023-06-01T05:23:47;100600.66;;;44.28;21.46
38303;BME280;24103;42.454;27.400;2023-06-01T05:26:13;100600.53;;;44.56;21.20
38303;BME280;24103;42.454;27.400;2023-06-01T05:28:38;100607.84;;;44.88;21.16
38303;BME280;24103;42.454;27.400;2023-06-01T05:31:04;100597.00;;;45.67;19.68
38303;BME280;24103;42.454;27.400;2023-06-01T05:33:30;100603.16;;;45.78;19.44
38303;BME280;24103;42.454;27.400;2023-06-01T05:35:56;100605.03;;;46.17;19.62
38303;BME280;24103;42.454;27.400;2023-06-01T05:38:21;100602.88;;;46.06;19.20
38303;BME280;24103;42.454;27.400;2023-06-01T05:40:47;100610.59;;;46.09;18.87
38303;BME280;24103;42.454;27.400;2023-06-01T05:43:14;100605.97;;;46.48;18.51
38303;BME280;24103;42.454;27.400;2023-06-01T05:45:40;100609.91;;;46.82;18.40
38303;BME280;24103;42.454;27.400;2023-06-01T05:48:05;100613.22;;;46.75;18.16
38303;BME280;24103;42.454;27.400;2023-06-01T05:50:30;100615.44;;;47.08;18.06
38303;BME280;24103;42.454;27.400;2023-06-01T05:52:56;100613.91;;;47.19;17.67
38303;BME280;24103;42.454;27.400;2023-06-01T05:55:22;100620.94;;;47.25;17.94
38303;BME280;24103;42.454;27.400;2023-06-01T05:57:48;100613.72;;;47.63;17.37
38303;BME280;24103;42.454;27.400;2023-06-01T06:00:14;100625.38;;;47.74;17.29
38303;BME280;24103;42.454;27.400;2023-06-01T06:02:42;100617.84;;;47.87;17.12
38303;BME280;24103;42.454;27.400;2023-06-01T06:05:08;100615.34;;;48.36;16.72
38303;BME280;24103;42.454;27.400;2023-06-01T06:07:34;100616.50;;;48.56;16.26
38303;BME280;24103;42.454;27.400;2023-06-01T06:10:00;100621.09;;;48.94;15.92
38303;BME280;24103;42.454;27.400;2023-06-01T06:12:26;100609.78;;;49.28;15.71
38303;BME280;24103;42.454;27.400;2023-06-01T06:14:52;100620.44;;;49.34;15.90
38303;BME280;24103;42.454;27.400;2023-06-01T06:17:17;100618.06;;;49.73;15.63
38303;BME280;24103;42.454;27.400;2023-06-01T06:19:43;100625.91;;;49.92;15.06
38303;BME280;24103;42.454;27.400;2023-06-01T06:22:10;100620.41;;;49.96;15.13
38303;BME280;24103;42.454;27.400;2023-06-01T06:24:36;100618.97;;;50.02;14.90
38303;BME280;24103;42.454;27.400;2023-06-01T06:27:02;100611.88;;;49.80;15.05
38303;BME280;24103;42.454;27.400;2023-06-01T06:29:28;100624.03;;;50.37;14.54
38303;BME280;24103;42.454;27.400;2023-06-01T06:31:54;100622.00;;;50.94;13.74
38303;BME280;24103;42.454;27.400;2023-06-01T06:34:20;100610.94;;;51.17;13.72
38303;BME280;24103;42.454;27.400;2023-06-01T06:36:45;100609.75;;;51.34;12.73
38303;BME280;24103;42.454;27.400;2023-06-01T06:39:11;100610.59;;;52.06;12.83
38303;BME280;24103;42.454;27.400;2023-06-01T06:41:40;100603.00;;;52.49;11.61
38303;BME280;24103;42.454;27.400;2023-06-01T06:44:05;100603.03;;;52.72;11.17
38303;BME280;24103;42.454;27.400;2023-06-01T06:46:31;100599.09;;;52.77;11.22
38303;BME280;24103;42.454;27.400;2023-06-01T06:48:56;100602.38;;;51.62;11.19
38303;BME280;24103;42.454;27.400;2023-06-01T06:51:22;100606.84;;;51.15;11.56
38303;BME280;24103;42.454;27.400;2023-06-01T06:53:48;100604.13;;;52.25;11.11
38303;BME280;24103;42.454;27.400;2023-06-01T06:56:13;100609.16;;;52.97;11.05
38303;BME280;24103;42.454;27.400;2023-06-01T06:58:39;100603.09;;;52.95;10.89
38303;BME280;24103;42.454;27.400;2023-06-01T07:01:05;100599.81;;;53.43;10.20
38303;BME280;24103;42.454;27.400;2023-06-01T07:03:33;100604.63;;;53.96;10.44
38303;BME280;24103;42.454;27.400;2023-06-01T07:05:59;100596.97;;;54.30;9.59
38303;BME280;24103;42.454;27.400;2023-06-01T07:08:25;100593.25;;;53.92;9.98
38303;BME280;24103;42.454;27.400;2023-06-01T07:10:52;100601.81;;;54.30;9.68
38303;BME280;24103;42.454;27.400;2023-06-01T07:13:17;100608.25;;;54.64;9.28
38303;BME280;24103;42.454;27.400;2023-06-01T07:15:43;100599.31;;;54.25;9.43
38303;BME280;24103;42.454;27.400;2023-06-01T07:18:09;100595.72;;;55.10;8.93
38303;BME280;24103;42.454;27.400;2023-06-01T07:20:34;100593.94;;;55.43;8.38
38303;BME280;24103;42.454;27.400;2023-06-01T07:23:00;100593.69;;;55.66;8.01
38303;BME280;24103;42.454;27.400;2023-06-01T07:25:25;100589.72;;;55.82;8.83
38303;BME280;24103;42.454;27.400;2023-06-01T07:27:51;100601.44;;;55.80;9.06
38303;BME280;24103;42.454;27.400;2023-06-01T07:30:16;100596.66;;;55.88;8.50
38303;BME280;24103;42.454;27.400;2023-06-01T07:32:42;100591.03;;;56.06;8.53
38303;BME280;24103;42.454;27.400;2023-06-01T07:35:08;100588.06;;;55.77;8.18
38303;BME280;24103;42.454;27.400;2023-06-01T07:37:34;100588.34;;;56.56;8.11
38303;BME280;24103;42.454;27.400;2023-06-01T07:39:59;100584.72;;;56.77;8.39
38303;BME280;24103;42.454;27.400;2023-06-01T07:42:25;100574.59;;;56.94;7.41
38303;BME280;24103;42.454;27.400;2023-06-01T07:44:50;100575.31;;;55.42;8.00
38303;BME280;24103;42.454;27.400;2023-06-01T07:47:16;100582.88;;;54.00;9.01
38303;BME280;24103;42.454;27.400;2023-06-01T07:49:42;100570.59;;;53.58;9.77
38303;BME280;24103;42.454;27.400;2023-06-01T07:52:08;100575.22;;;53.17;9.59
38303;BME280;24103;42.454;27.400;2023-06-01T07:54:34;100577.06;;;53.05;9.57
38303;BME280;24103;42.454;27.400;2023-06-01T07:57:03;100578.31;;;52.23;10.01
38303;BME280;24103;42.454;27.400;2023-06-01T07:59:30;100579.81;;;51.97;10.59
38303;BME280;24103;42.454;27.400;2023-06-01T08:01:56;100576.25;;;52.00;9.90
38303;BME280;24103;42.454;27.400;2023-06-01T08:04:22;100570.97;;;51.43;10.67
38303;BME280;24103;42.454;27.400;2023-06-01T08:06:49;100582.41;;;50.87;11.15
38303;BME280;24103;42.454;27.400;2023-06-01T08:09:19;100573.25;;;49.89;11.29
38303;BME280;24103;42.454;27.400;2023-06-01T08:11:45;100566.16;;;49.42;10.73
38303;BME280;24103;42.454;27.400;2023-06-01T08:14:10;100566.28;;;47.67;11.34
38303;BME280;24103;42.454;27.400;2023-06-01T08:16:36;100577.13;;;45.51;13.24
38303;BME280;24103;42.454;27.400;2023-06-01T08:19:02;100567.38;;;43.03;14.70
38303;BME280;24103;42.454;27.400;2023-06-01T08:21:28;100581.25;;;40.98;16.76
38303;BME280;24103;42.454;27.400;2023-06-01T08:23:54;100588.00;;;39.32;18.40
38303;BME280;24103;42.454;27.400;2023-06-01T08:30:00;100595.84;;;35.90;19.78
38303;BME280;24103;42.454;27.400;2023-06-01T08:32:25;100591.44;;;34.19;21.61
38303;BME280;24103;42.454;27.400;2023-06-01T08:34:51;100594.00;;;33.45;23.75
38303;BME280;24103;42.454;27.400;2023-06-01T08:37:18;100603.84;;;32.98;23.59
38303;BME280;24103;42.454;27.400;2023-06-01T08:39:43;100601.91;;;32.57;22.73
38303;BME280;24103;42.454;27.400;2023-06-01T08:42:15;100605.81;;;32.00;23.30
38303;BME280;24103;42.454;27.400;2023-06-01T08:44:46;100602.38;;;31.49;23.58
38303;BME280;24103;42.454;27.400;2023-06-01T08:47:13;100594.50;;;30.91;22.83
38303;BME280;24103;42.454;27.400;2023-06-01T08:49:41;100597.44;;;30.57;23.19
38303;BME280;24103;42.454;27.400;2023-06-01T08:52:11;100598.88;;;30.66;23.34
38303;BME280;24103;42.454;27.400;2023-06-01T08:54:38;100600.78;;;30.66;24.04
38303;BME280;24103;42.454;27.400;2023-06-01T08:57:05;100596.41;;;30.58;23.54
38303;BME280;24103;42.454;27.400;2023-06-01T08:59:33;100589.81;;;30.73;23.33
38303;BME280;24103;42.454;27.400;2023-06-01T09:01:59;100596.13;;;30.66;23.31
38303;BME280;24103;42.454;27.400;2023-06-01T09:04:26;100588.50;;;30.05;23.57
38303;BME280;24103;42.454;27.400;2023-06-01T09:06:52;100587.94;;;29.76;23.31
38303;BME280;24103;42.454;27.400;2023-06-01T09:09:18;100581.25;;;29.85;24.43
38303;BME280;24103;42.454;27.400;2023-06-01T09:11:44;100588.59;;;29.65;23.69
38303;BME280;24103;42.454;27.400;2023-06-01T09:14:21;100596.53;;;29.80;24.01
38303;BME280;24103;42.454;27.400;2023-06-01T09:16:47;100593.91;;;29.39;23.57
38303;BME280;24103;42.454;27.400;2023-06-01T09:19:13;100583.22;;;29.38;24.15
38303;BME280;24103;42.454;27.400;2023-06-01T09:21:39;100589.97;;;29.29;24.94
38303;BME280;24103;42.454;27.400;2023-06-01T09:24:20;100591.59;;;29.16;24.67
38303;BME280;24103;42.454;27.400;2023-06-01T09:26:50;100587.41;;;28.94;24.84
38303;BME280;24103;42.454;27.400;2023-06-01T09:29:16;100597.03;;;28.96;26.06
38303;BME280;24103;42.454;27.400;2023-06-01T09:31:43;100593.72;;;29.01;26.17
38303;BME280;24103;42.454;27.400;2023-06-01T09:34:14;100597.25;;;29.01;26.38
38303;BME280;24103;42.454;27.400;2023-06-01T09:36:50;100596.22;;;28.89;26.94
38303;BME280;24103;42.454;27.400;2023-06-01T09:39:19;100612.09;;;28.85;28.29
38303;BME280;24103;42.454;27.400;2023-06-01T09:41:58;100608.13;;;28.75;27.99
38303;BME280;24103;42.454;27.400;2023-06-01T09:44:32;100600.38;;;28.78;27.90
38303;BME280;24103;42.454;27.400;2023-06-01T09:47:02;100606.63;;;28.65;28.58
38303;BME280;24103;42.454;27.400;2023-06-01T09:49:32;100609.81;;;28.82;28.35
38303;BME280;24103;42.454;27.400;2023-06-01T09:54:46;100598.72;;;28.91;28.94
38303;BME280;24103;42.454;27.400;2023-06-01T09:57:12;100604.38;;;29.02;29.58
38303;BME280;24103;42.454;27.400;2023-06-01T09:59:42;100601.06;;;29.20;29.08
38303;BME280;24103;42.454;27.400;2023-06-01T10:02:35;100606.44;;;29.07;29.30
38303;BME280;24103;42.454;27.400;2023-06-01T10:05:03;100602.69;;;28.88;28.80
38303;BME280;24103;42.454;27.400;2023-06-01T10:07:31;100596.44;;;28.94;28.41
38303;BME280;24103;42.454;27.400;2023-06-01T10:09:58;100597.66;;;29.38;28.42
38303;BME280;24103;42.454;27.400;2023-06-01T10:12:25;100593.09;;;29.26;27.39
38303;BME280;24103;42.454;27.400;2023-06-01T10:14:51;100592.88;;;29.27;27.75
38303;BME280;24103;42.454;27.400;2023-06-01T10:17:19;100604.78;;;29.06;28.63
38303;BME280;24103;42.454;27.400;2023-06-01T10:19:45;100591.81;;;29.15;28.21
38303;BME280;24103;42.454;27.400;2023-06-01T10:22:11;100595.81;;;29.32;28.01
38303;BME280;24103;42.454;27.400;2023-06-01T10:24:38;100595.81;;;29.12;27.87
38303;BME280;24103;42.454;27.400;2023-06-01T10:29:46;100588.88;;;28.96;27.50
38303;BME280;24103;42.454;27.400;2023-06-01T10:35:05;100586.16;;;29.10;27.18
38303;BME280;24103;42.454;27.400;2023-06-01T10:37:31;100589.72;;;29.03;27.28
38303;BME280;24103;42.454;27.400;2023-06-01T10:40:19;100587.41;;;28.80;28.02
38303;BME280;24103;42.454;27.400;2023-06-01T10:42:48;100585.75;;;28.99;27.00
38303;BME280;24103;42.454;27.400;2023-06-01T10:48:05;100585.84;;;28.44;27.19
38303;BME280;24103;42.454;27.400;2023-06-01T10:50:33;100578.75;;;28.43;27.63
38303;BME280;24103;42.454;27.400;2023-06-01T10:56:22;100571.91;;;28.61;25.86
38303;BME280;24103;42.454;27.400;2023-06-01T11:01:37;100569.16;;;28.54;27.01
38303;BME280;24103;42.454;27.400;2023-06-01T11:04:03;100572.16;;;28.66;26.60
38303;BME280;24103;42.454;27.400;2023-06-01T11:06:30;100568.31;;;28.54;26.43
38303;BME280;24103;42.454;27.400;2023-06-01T11:09:02;100561.69;;;28.63;26.96
38303;BME280;24103;42.454;27.400;2023-06-01T11:14:21;100561.84;;;28.41;26.47
38303;BME280;24103;42.454;27.400;2023-06-01T11:16:49;100554.91;;;28.25;26.83
38303;BME280;24103;42.454;27.400;2023-06-01T11:19:20;100548.63;;;28.18;27.05
38303;BME280;24103;42.454;27.400;2023-06-01T11:21:46;100561.56;;;28.23;27.50
38303;BME280;24103;42.454;27.400;2023-06-01T11:24:13;100550.69;;;28.16;27.22
38303;BME280;24103;42.454;27.400;2023-06-01T11:26:47;100548.66;;;28.31;28.00
38303;BME280;24103;42.454;27.400;2023-06-01T11:29:23;100556.78;;;28.31;28.25
38303;BME280;24103;42.454;27.400;2023-06-01T11:31:56;100554.28;;;28.30;27.55
38303;BME280;24103;42.454;27.400;2023-06-01T11:34:40;100546.75;;;28.25;26.80
38303;BME280;24103;42.454;27.400;2023-06-01T11:37:18;100546.13;;;28.23;26.91
38303;BME280;24103;42.454;27.400;2023-06-01T11:39:44;100545.66;;;28.13;26.88
38303;BME280;24103;42.454;27.400;2023-06-01T11:42:15;100542.34;;;28.24;26.67
38303;BME280;24103;42.454;27.400;2023-06-01T11:44:44;100538.19;;;28.42;26.44
38303;BME280;24103;42.454;27.400;2023-06-01T11:47:11;100530.66;;;28.37;27.22
38303;BME280;24103;42.454;27.400;2023-06-01T11:49:49;100529.03;;;28.43;27.66
38303;BME280;24103;42.454;27.400;2023-06-01T11:52:16;100533.44;;;28.64;27.07
38303;BME280;24103;42.454;27.400;2023-06-01T11:54:44;100518.78;;;28.92;27.05
38303;BME280;24103;42.454;27.400;2023-06-01T11:57:10;100519.41;;;28.94;26.55
38303;BME280;24103;42.454;27.400;2023-06-01T11:59:39;100511.91;;;28.96;26.40
38303;BME280;24103;42.454;27.400;2023-06-01T12:02:21;100507.50;;;28.95;25.85
38303;BME280;24103;42.454;27.400;2023-06-01T12:07:22;100505.00;;;28.66;25.68
38303;BME280;24103;42.454;27.400;2023-06-01T12:09:48;100502.91;;;28.62;25.04
38303;BME280;24103;42.454;27.400;2023-06-01T12:12:14;100499.53;;;28.40;25.53
38303;BME280;24103;42.454;27.400;2023-06-01T12:14:40;100496.63;;;28.48;26.53
38303;BME280;24103;42.454;27.400;2023-06-01T12:17:07;100497.69;;;28.60;25.26
38303;BME280;24103;42.454;27.400;2023-06-01T12:19:32;100499.53;;;28.46;24.93
38303;BME280;24103;42.454;27.400;2023-06-01T12:21:58;100483.84;;;28.35;25.31
38303;BME280;24103;42.454;27.400;2023-06-01T12:24:28;100489.28;;;28.35;25.93
38303;BME280;24103;42.454;27.400;2023-06-01T12:26:55;100492.19;;;28.27;26.78
38303;BME280;24103;42.454;27.400;2023-06-01T12:29:35;100497.84;;;28.25;26.37
38303;BME280;24103;42.454;27.400;2023-06-01T12:32:01;100480.91;;;28.30;26.16
38303;BME280;24103;42.454;27.400;2023-06-01T12:34:27;100475.91;;;28.40;26.70
38303;BME280;24103;42.454;27.400;2023-06-01T12:36:52;100468.16;;;28.17;26.82
38303;BME280;24103;42.454;27.400;2023-06-01T12:39:31;100473.16;;;28.13;27.51
38303;BME280;24103;42.454;27.400;2023-06-01T12:42:02;100472.97;;;28.22;26.87
38303;BME280;24103;42.454;27.400;2023-06-01T12:44:27;100469.44;;;28.28;26.36
38303;BME280;24103;42.454;27.400;2023-06-01T12:46:57;100465.84;;;28.27;26.74
38303;BME280;24103;42.454;27.400;2023-06-01T12:49:26;100469.19;;;28.29;26.89
38303;BME280;24103;42.454;27.400;2023-06-01T12:51:52;100460.00;;;28.17;26.64
38303;BME280;24103;42.454;27.400;2023-06-01T12:54:17;100452.47;;;28.33;27.13
38303;BME280;24103;42.454;27.400;2023-06-01T12:56:43;100450.41;;;28.28;27.33
38303;BME280;24103;42.454;27.400;2023-06-01T12:59:09;100454.16;;;28.34;27.31
38303;BME280;24103;42.454;27.400;2023-06-01T13:01:35;100447.91;;;28.33;27.49
38303;BME280;24103;42.454;27.400;2023-06-01T13:04:01;100442.22;;;28.21;27.08
38303;BME280;24103;42.454;27.400;2023-06-01T13:06:29;100439.97;;;28.38;28.23
38303;BME280;24103;42.454;27.400;2023-06-01T13:08:54;100449.16;;;28.50;27.32
38303;BME280;24103;42.454;27.400;2023-06-01T13:11:21;100446.84;;;28.41;26.70
38303;BME280;24103;42.454;27.400;2023-06-01T13:13:48;100446.84;;;28.34;27.87
38303;BME280;24103;42.454;27.400;2023-06-01T13:16:14;100447.06;;;28.39;27.36
38303;BME280;24103;42.454;27.400;2023-06-01T13:18:40;100436.38;;;28.18;28.26
38303;BME280;24103;42.454;27.400;2023-06-01T13:21:06;100438.28;;;28.24;28.03